Time;durP1;ratioP1;P1;durP2;ratioP2;P2;SDS_P1;SDS_P2;PMS_P1;PMS_P2;Temp;Humidity;BMP_temperature;BMP_pressure;BME280_temperature;BME280_humidity;BME280_pressure;Samples;Min_cycle;Max_cycle;Signal;HPM_P1;HPM_P2
2023/11/17 00:01:28;;;;;;;10.63;5.25;;;;;;;8.55;100.00;96444.41;5073681;28;20374;-63
2023/11/17 00:03:53;;;;;;;6.20;2.65;;;;;;;8.68;100.00;96446.97;5078503;28;20016;-64
2023/11/17 00:06:19;;;;;;;6.55;2.33;;;;;;;8.56;100.00;96467.91;5081045;28;20028;-64
2023/11/17 00:08:44;;;;;;;5.57;2.63;;;;;;;8.50;100.00;96470.13;5075891;28;20046;-64
2023/11/17 00:11:11;;;;;;;5.47;2.40;;;;;;;8.37;100.00;96478.03;5087328;28;20097;-64
2023/11/17 00:13:38;;;;;;;5.97;2.67;;;;;;;8.39;100.00;96478.75;5085886;28;20016;-64
2023/11/17 00:16:06;;;;;;;7.68;2.90;;;;;;;8.40;100.00;96485.66;5077942;28;20021;-64
2023/11/17 00:18:33;;;;;;;7.35;2.83;;;;;;;8.57;100.00;96500.25;5083375;28;20017;-64
2023/11/17 00:20:59;;;;;;;4.43;2.63;;;;;;;8.64;100.00;96487.50;5082187;28;20487;-64
2023/11/17 00:23:27;;;;;;;4.55;2.50;;;;;;;8.50;100.00;96499.81;5085350;28;20033;-64
2023/11/17 00:25:55;;;;;;;7.38;2.63;;;;;;;8.34;100.00;96507.94;5081155;28;20036;-64
2023/11/17 00:28:23;;;;;;;4.82;2.63;;;;;;;8.37;100.00;96502.44;5089977;28;20032;-64
2023/11/17 00:30:49;;;;;;;4.82;2.45;;;;;;;8.23;100.00;96507.84;5086313;28;20020;-64
2023/11/17 00:33:15;;;;;;;3.65;2.20;;;;;;;8.22;100.00;96525.38;5079656;28;20031;-64
2023/11/17 00:35:41;;;;;;;3.92;2.30;;;;;;;8.14;100.00;96517.19;5082095;28;20028;-64
2023/11/17 00:38:07;;;;;;;7.88;4.03;;;;;;;8.04;100.00;96509.13;5086057;28;20024;-64
2023/11/17 00:40:33;;;;;;;8.27;3.60;;;;;;;7.97;100.00;96479.03;5081589;28;20460;-64
2023/11/17 00:43:00;;;;;;;6.47;3.47;;;;;;;8.03;100.00;96471.56;5090051;28;20016;-64
2023/11/17 00:45:26;;;;;;;5.53;2.72;;;;;;;8.05;100.00;96466.22;5084042;28;20063;-64
2023/11/17 00:47:52;;;;;;;6.47;2.65;;;;;;;8.11;100.00;96447.41;5083393;28;20077;-64
2023/11/17 00:50:17;;;;;;;6.43;2.60;;;;;;;8.08;100.00;96457.31;5088939;28;20026;-64
2023/11/17 00:52:43;;;;;;;2.40;2.20;;;;;;;7.99;100.00;96453.53;5088484;28;20035;-64
2023/11/17 00:55:11;;;;;;;6.60;3.42;;;;;;;7.92;100.00;96457.53;5089782;28;20075;-64
2023/11/17 00:57:36;;;;;;;7.05;3.25;;;;;;;7.92;100.00;96476.72;5091096;28;20020;-64
2023/11/17 01:00:04;;;;;;;9.45;3.00;;;;;;;7.88;100.00;96475.28;5082901;28;20024;-64
2023/11/17 01:02:30;;;;;;;5.28;2.72;;;;;;;7.86;100.00;96480.59;5084409;28;20016;-64
2023/11/17 01:04:56;;;;;;;5.15;2.92;;;;;;;7.91;100.00;96485.53;5081838;28;20020;-64
2023/11/17 01:07:21;;;;;;;6.30;2.78;;;;;;;7.85;100.00;96481.56;5089041;28;20481;-64
2023/11/17 01:09:46;;;;;;;4.72;2.65;;;;;;;7.85;100.00;96478.09;5080105;28;20560;-64
2023/11/17 01:12:13;;;;;;;4.18;2.85;;;;;;;7.88;100.00;96485.75;5089824;28;20037;-64
2023/11/17 01:14:38;;;;;;;5.85;2.80;;;;;;;7.86;100.00;96488.47;5081509;28;20038;-64
2023/11/17 01:17:03;;;;;;;8.10;5.25;;;;;;;7.88;100.00;96485.75;5078662;28;20099;-64
2023/11/17 01:19:29;;;;;;;5.82;4.32;;;;;;;7.90;100.00;96473.38;5080784;28;20032;-64
2023/11/17 01:21:54;;;;;;;6.90;5.50;;;;;;;7.85;100.00;96457.13;5090640;28;20080;-64
2023/11/17 01:24:19;;;;;;;9.18;4.97;;;;;;;7.78;100.00;96450.63;5089192;28;20029;-64
2023/11/17 01:26:47;;;;;;;8.05;5.72;;;;;;;7.68;100.00;96453.88;5082490;28;20444;-64
2023/11/17 01:29:12;;;;;;;10.25;4.80;;;;;;;7.63;100.00;96448.13;5087278;28;20032;-64
2023/11/17 01:31:38;;;;;;;13.40;4.38;;;;;;;7.63;100.00;96440.25;5084634;28;20599;-64
2023/11/17 01:34:04;;;;;;;5.35;3.17;;;;;;;7.63;100.00;96436.78;5080156;28;20594;-64
2023/11/17 01:36:30;;;;;;;4.50;3.20;;;;;;;7.63;100.00;96427.16;5080262;28;20032;-64
2023/11/17 01:38:56;;;;;;;34.15;18.20;;;;;;;7.73;100.00;96437.81;5090543;28;20568;-64
2023/11/17 01:41:23;;;;;;;15.30;9.10;;;;;;;7.73;100.00;96429.94;5084072;28;20025;-64
2023/11/17 01:43:48;;;;;;;12.20;7.07;;;;;;;7.73;100.00;96427.34;5078989;28;20032;-64
2023/11/17 01:46:14;;;;;;;17.55;9.48;;;;;;;7.73;100.00;96429.94;5079627;28;20716;-64
2023/11/17 01:48:40;;;;;;;10.40;7.25;;;;;;;7.70;100.00;96425.78;5082771;28;20057;-64
2023/11/17 01:51:07;;;;;;;6.78;5.45;;;;;;;7.66;100.00;96424.31;5087435;28;20016;-64
2023/11/17 01:53:33;;;;;;;7.18;4.28;;;;;;;7.66;100.00;96418.22;5080284;28;20032;-64
2023/11/17 01:55:58;;;;;;;7.35;2.95;;;;;;;7.71;100.00;96422.22;5078522;28;20685;-64
2023/11/17 01:58:24;;;;;;;29.80;17.83;;;;;;;7.66;100.00;96419.06;5077320;28;20462;-64
2023/11/17 02:00:52;;;;;;;112.93;74.50;;;;;;;7.68;100.00;96416.34;5088190;28;20085;-64
2023/11/17 02:03:18;;;;;;;81.45;55.22;;;;;;;7.70;100.00;96406.59;5091582;28;20511;-64
2023/11/17 02:05:43;;;;;;;29.50;18.13;;;;;;;7.65;100.00;96399.06;5083698;28;20477;-64
2023/11/17 02:08:58;;;;;;;7.53;3.83;;;;;;;7.51;100.00;96404.41;5081442;28;20031;-64
2023/11/17 02:11:31;;;;;;;3.92;2.60;;;;;;;7.39;100.00;96414.75;5067996;28;20400;-64
2023/11/17 02:14:13;;;;;;;6.80;3.17;;;;;;;7.38;100.00;96407.84;5077534;28;20052;-64
2023/11/17 02:16:42;;;;;;;12.43;6.68;;;;;;;7.39;100.00;96395.59;5080990;28;20038;-64
2023/11/17 02:19:28;;;;;;;6.40;3.83;;;;;;;7.40;100.00;96402.50;5089648;28;20048;-64
2023/11/17 02:22:02;;;;;;;4.57;3.20;;;;;;;7.42;100.00;96411.97;5080208;28;20020;-65
2023/11/17 02:24:36;;;;;;;6.70;3.78;;;;;;;7.50;100.00;96416.66;5092084;28;20032;-64
2023/11/17 02:27:40;;;;;;;7.30;4.55;;;;;;;7.54;100.00;96398.94;5085832;28;20039;-64
2023/11/17 02:30:07;;;;;;;7.68;4.53;;;;;;;7.53;100.00;96394.66;5071911;28;20062;-64
2023/11/17 02:32:38;;;;;;;7.72;3.78;;;;;;;7.54;100.00;96391.09;5079776;28;20170;-64
2023/11/17 02:35:05;;;;;;;6.22;3.60;;;;;;;7.53;100.00;96387.66;5077200;28;20031;-64
2023/11/17 02:37:31;;;;;;;6.15;3.08;;;;;;;7.47;100.00;96387.22;5079595;28;20501;-64
2023/11/17 02:39:56;;;;;;;8.80;2.72;;;;;;;7.42;100.00;96385.75;5080751;28;20044;-64
2023/11/17 02:42:26;;;;;;;2.92;2.10;;;;;;;7.44;100.00;96398.75;5084409;28;20089;-64
2023/11/17 02:44:52;;;;;;;7.18;3.45;;;;;;;7.46;100.00;96383.75;5080582;28;20020;-64
2023/11/17 02:47:27;;;;;;;8.57;5.45;;;;;;;7.45;100.00;96380.31;5078539;28;20036;-64
2023/11/17 02:50:01;;;;;;;6.35;5.40;;;;;;;7.47;100.00;96371.50;5082006;28;20054;-64
2023/11/17 02:53:00;;;;;;;6.15;5.55;;;;;;;7.51;100.00;96376.41;5080427;28;20056;-63
2023/11/17 02:55:27;;;;;;;8.52;7.72;;;;;;;7.40;100.00;96377.13;5075527;28;20032;-63
2023/11/17 02:57:56;;;;;;;9.77;6.38;;;;;;;7.37;100.00;96372.13;5078024;28;20104;-62
2023/11/17 03:00:23;;;;;;;4.82;4.40;;;;;;;7.34;100.00;96366.28;5076137;28;20028;-62
2023/11/17 03:02:50;;;;;;;6.22;4.22;;;;;;;7.31;100.00;96362.91;5083153;28;20032;-62
2023/11/17 03:05:16;;;;;;;7.13;4.03;;;;;;;7.30;100.00;96363.00;5081263;28;20174;-62
2023/11/17 03:07:42;;;;;;;5.18;4.63;;;;;;;7.30;100.00;96349.91;5081601;28;20449;-63
2023/11/17 03:10:08;;;;;;;8.20;5.43;;;;;;;7.31;100.00;96352.44;5080140;28;20044;-62
2023/11/17 03:12:33;;;;;;;7.78;4.80;;;;;;;7.24;100.00;96363.44;5074568;28;20024;-62
2023/11/17 03:14:59;;;;;;;6.72;4.07;;;;;;;7.24;100.00;96351.16;5079447;28;20052;-62
2023/11/17 03:17:25;;;;;;;5.35;3.20;;;;;;;7.26;100.00;96337.97;5087400;28;20016;-62
2023/11/17 03:19:51;;;;;;;5.20;3.88;;;;;;;7.28;100.00;96336.09;5077243;28;20052;-62
2023/11/17 03:22:17;;;;;;;12.98;9.80;;;;;;;7.28;100.00;96339.53;5081829;28;20024;-63
2023/11/17 03:24:42;;;;;;;25.23;18.08;;;;;;;7.32;100.00;96342.78;5077849;28;20103;-63
2023/11/17 03:27:07;;;;;;;14.05;10.10;;;;;;;7.30;100.00;96339.44;5079604;28;20020;-62
2023/11/17 03:29:33;;;;;;;8.45;7.60;;;;;;;7.26;100.00;96343.22;5078619;28;20027;-62
2023/11/17 03:31:59;;;;;;;9.55;8.70;;;;;;;7.27;100.00;96339.66;5080310;28;20039;-63
2023/11/17 03:34:29;;;;;;;11.07;9.52;;;;;;;7.22;100.00;96339.97;5084314;28;20028;-62
2023/11/17 03:37:04;;;;;;;46.45;33.60;;;;;;;7.22;100.00;96349.63;5082956;28;20059;-62
2023/11/17 03:39:43;;;;;;;10.90;9.88;;;;;;;7.22;100.00;96337.34;5086209;28;20024;-63
2023/11/17 03:42:15;;;;;;;16.05;12.63;;;;;;;7.19;100.00;96319.22;5076049;28;20037;-63
2023/11/17 03:44:41;;;;;;;16.20;12.10;;;;;;;7.19;100.00;96313.97;5095512;28;20024;-62
2023/11/17 03:47:07;;;;;;;7.22;5.65;;;;;;;7.21;100.00;96324.38;5080291;28;20116;-62
2023/11/17 03:49:33;;;;;;;4.32;3.13;;;;;;;7.13;100.00;96333.56;5091379;28;20056;-63
2023/11/17 03:51:59;;;;;;;5.00;3.50;;;;;;;7.07;100.00;96344.47;5077785;28;20506;-63
2023/11/17 03:54:25;;;;;;;3.83;2.90;;;;;;;7.06;100.00;96342.78;5091078;28;20040;-63
2023/11/17 03:56:52;;;;;;;5.10;3.00;;;;;;;7.01;100.00;96339.66;5082464;28;20038;-63
2023/11/17 03:59:18;;;;;;;3.33;2.53;;;;;;;7.01;100.00;96324.78;5085276;28;20032;-62
2023/11/17 04:01:44;;;;;;;21.45;11.05;;;;;;;7.06;100.00;96323.63;5085229;28;20465;-63
2023/11/17 04:04:10;;;;;;;27.63;15.77;;;;;;;7.07;100.00;96318.28;5078175;28;20496;-62
2023/11/17 04:06:36;;;;;;;11.80;8.30;;;;;;;7.03;100.00;96317.66;5078486;28;20054;-62
2023/11/17 04:09:05;;;;;;;8.55;4.15;;;;;;;6.94;100.00;96309.56;5088479;28;20031;-62
2023/11/17 04:11:34;;;;;;;5.63;3.25;;;;;;;6.87;100.00;96303.94;5084577;28;20069;-62
2023/11/17 04:14:00;;;;;;;6.00;3.00;;;;;;;6.81;100.00;96307.81;5084793;28;20020;-62
2023/11/17 04:16:26;;;;;;;2.40;2.20;;;;;;;6.82;100.00;96312.09;5082764;28;20039;-63
2023/11/17 04:18:52;;;;;;;2.60;1.80;;;;;;;6.78;100.00;96302.78;5090485;28;20036;-62
2023/11/17 04:21:17;;;;;;;4.45;2.45;;;;;;;6.79;100.00;96294.00;5089018;28;20035;-62
2023/11/17 04:23:43;;;;;;;8.40;4.53;;;;;;;6.92;100.00;96291.38;5086304;28;20020;-63
2023/11/17 04:26:11;;;;;;;11.93;7.78;;;;;;;6.91;100.00;96296.69;5087204;28;20396;-63
2023/11/17 04:28:38;;;;;;;9.98;5.88;;;;;;;6.91;100.00;96292.31;5088363;28;20031;-63
2023/11/17 04:31:05;;;;;;;5.57;3.75;;;;;;;6.94;100.00;96293.88;5096695;28;20020;-62
2023/11/17 04:33:30;;;;;;;2.83;2.15;;;;;;;6.95;100.00;96299.00;5084259;28;20082;-63
2023/11/17 04:35:56;;;;;;;3.40;1.70;;;;;;;6.96;100.00;96313.78;5084803;28;20044;-63
2023/11/17 04:38:22;;;;;;;9.55;6.38;;;;;;;6.90;100.00;96323.81;5089512;28;20481;-63
2023/11/17 04:40:47;;;;;;;17.23;11.18;;;;;;;6.88;100.00;96319.53;5091218;28;20021;-62
2023/11/17 04:43:13;;;;;;;2.72;2.17;;;;;;;6.87;100.00;96328.31;5083905;28;20041;-63
2023/11/17 04:45:42;;;;;;;2.92;2.67;;;;;;;6.86;100.00;96331.06;5081502;28;20043;-63
2023/11/17 04:48:09;;;;;;;4.75;3.80;;;;;;;6.87;100.00;96330.94;5096111;28;20028;-62
2023/11/17 04:50:34;;;;;;;4.32;2.90;;;;;;;6.83;100.00;96336.47;5089210;28;20039;-62
2023/11/17 04:53:01;;;;;;;2.95;1.98;;;;;;;6.82;100.00;96335.66;5087605;28;20020;-63
2023/11/17 04:55:27;;;;;;;8.40;5.85;;;;;;;6.87;100.00;96345.81;5079670;28;20538;-63
2023/11/17 04:57:52;;;;;;;9.73;7.50;;;;;;;6.92;100.00;96345.50;5079873;28;20078;-63
2023/11/17 05:00:19;;;;;;;4.60;3.78;;;;;;;6.95;100.00;96353.13;5095989;28;20024;-63
2023/11/17 05:02:44;;;;;;;1.95;1.80;;;;;;;6.93;100.00;96363.72;5095357;28;20107;-62
2023/11/17 05:05:11;;;;;;;1.95;1.70;;;;;;;6.93;100.00;96378.59;5086886;28;20051;-63
2023/11/17 05:07:44;;;;;;;3.85;2.28;;;;;;;6.96;100.00;96376.59;5087395;28;20024;-62
2023/11/17 05:10:11;;;;;;;1.25;1.25;;;;;;;6.84;100.00;96380.88;5096247;28;20044;-63
2023/11/17 05:12:37;;;;;;;1.60;1.45;;;;;;;6.82;100.00;96384.53;5094228;28;20036;-63
2023/11/17 05:15:03;;;;;;;1.35;1.25;;;;;;;6.93;100.00;96374.19;5077905;28;20031;-63
2023/11/17 05:17:33;;;;;;;1.02;1.00;;;;;;;6.74;100.00;96377.19;5085097;28;20070;-62
2023/11/17 05:20:00;;;;;;;1.40;1.30;;;;;;;6.68;100.00;96381.06;5086043;28;20016;-63
2023/11/17 05:22:25;;;;;;;4.40;3.75;;;;;;;6.66;100.00;96379.47;5094232;28;20404;-63
2023/11/17 05:24:53;;;;;;;16.95;14.77;;;;;;;6.68;100.00;96374.97;5092413;28;20008;-63
2023/11/17 05:27:18;;;;;;;14.77;13.20;;;;;;;6.68;100.00;96369.75;5087844;28;20038;-64
2023/11/17 05:29:44;;;;;;;4.95;4.55;;;;;;;6.65;100.00;96377.81;5080729;28;20024;-63
2023/11/17 05:32:09;;;;;;;2.55;2.28;;;;;;;6.57;100.00;96384.38;5077776;28;20016;-63
2023/11/17 05:34:35;;;;;;;2.67;2.33;;;;;;;6.53;100.00;96376.81;5081319;28;20024;-63
2023/11/17 05:37:01;;;;;;;3.10;2.90;;;;;;;6.45;100.00;96374.72;5078417;28;20035;-63
2023/11/17 05:39:27;;;;;;;5.32;4.80;;;;;;;6.38;100.00;96369.03;5094705;28;20501;-63
2023/11/17 05:41:53;;;;;;;10.05;7.00;;;;;;;6.34;100.00;96372.78;5092942;28;20081;-63
2023/11/17 05:44:18;;;;;;;3.45;2.53;;;;;;;6.28;100.00;96375.81;5095066;28;20016;-63
2023/11/17 05:46:44;;;;;;;4.20;3.90;;;;;;;6.24;100.00;96379.56;5084687;28;20029;-63
2023/11/17 05:49:09;;;;;;;7.05;4.95;;;;;;;6.22;100.00;96369.19;5095699;28;20020;-63
2023/11/17 05:51:35;;;;;;;2.97;2.67;;;;;;;6.17;100.00;96379.09;5096041;28;20031;-63
2023/11/17 05:54:01;;;;;;;1.60;1.50;;;;;;;6.11;100.00;96369.88;5091413;28;20028;-63
2023/11/17 05:56:26;;;;;;;1.55;1.45;;;;;;;6.10;100.00;96369.97;5083069;28;20503;-63
2023/11/17 05:58:52;;;;;;;4.03;3.63;;;;;;;6.07;100.00;96359.69;5091680;28;20031;-63
2023/11/17 06:01:17;;;;;;;13.98;10.63;;;;;;;6.05;100.00;96357.19;5083347;28;20067;-63
2023/11/17 06:03:43;;;;;;;3.80;3.50;;;;;;;6.04;100.00;96359.88;5076978;28;20015;-63
2023/11/17 06:06:09;;;;;;;3.15;2.83;;;;;;;5.97;100.00;96370.72;5092306;28;20053;-63
2023/11/17 06:08:35;;;;;;;2.55;2.35;;;;;;;5.96;100.00;96383.88;5089795;28;20020;-63
2023/11/17 06:11:00;;;;;;;1.77;1.67;;;;;;;5.98;100.00;96382.84;5094843;28;20040;-63
2023/11/17 06:13:26;;;;;;;2.20;2.00;;;;;;;5.98;100.00;96388.06;5081530;28;20108;-64
2023/11/17 06:15:51;;;;;;;5.20;1.75;;;;;;;6.02;100.00;96392.19;5084448;28;20033;-63
2023/11/17 06:18:16;;;;;;;2.58;2.38;;;;;;;6.04;100.00;96396.50;5089786;28;20039;-63
2023/11/17 06:20:42;;;;;;;8.38;5.18;;;;;;;6.06;100.00;96399.84;5086649;28;20035;-63
2023/11/17 06:23:11;;;;;;;9.88;6.72;;;;;;;6.04;100.00;96402.56;5083052;28;20105;-63
2023/11/17 06:25:36;;;;;;;5.53;5.03;;;;;;;5.93;100.00;96408.44;5075426;28;20025;-63
2023/11/17 06:28:03;;;;;;;3.15;2.85;;;;;;;5.92;100.00;96393.69;5086696;28;20032;-63
2023/11/17 06:30:30;;;;;;;2.58;2.38;;;;;;;5.90;100.00;96379.88;5058112;28;20106;-63
2023/11/17 06:32:55;;;;;;;3.67;3.35;;;;;;;5.93;100.00;96376.22;5084264;28;20058;-63
2023/11/17 06:35:20;;;;;;;3.75;3.50;;;;;;;5.94;100.00;96373.53;5081518;28;20480;-63
2023/11/17 06:37:46;;;;;;;8.07;5.65;;;;;;;5.93;100.00;96378.84;5084620;28;20079;-63
2023/11/17 06:40:11;;;;;;;18.23;15.52;;;;;;;5.95;100.00;96383.03;5093053;28;20024;-63
2023/11/17 06:42:38;;;;;;;7.55;6.72;;;;;;;6.06;100.00;96390.25;5088060;28;20066;-63
2023/11/17 06:45:04;;;;;;;5.10;3.72;;;;;;;6.09;100.00;96408.34;5081941;28;20679;-63
2023/11/17 06:47:30;;;;;;;3.53;2.95;;;;;;;5.97;100.00;96403.88;5074953;28;20024;-63
2023/11/17 06:49:55;;;;;;;20.27;18.67;;;;;;;5.94;100.00;96407.50;5075093;28;20017;-63
2023/11/17 06:52:20;;;;;;;68.07;62.75;;;;;;;5.97;100.00;96403.88;5076502;28;20464;-63
2023/11/17 06:54:46;;;;;;;55.17;50.83;;;;;;;6.03;100.00;96411.34;5082750;28;20028;-63
2023/11/17 06:57:11;;;;;;;15.13;13.80;;;;;;;6.00;100.00;96414.94;5074967;28;20024;-63
2023/11/17 06:59:36;;;;;;;7.93;7.15;;;;;;;6.00;100.00;96406.28;5080235;28;20036;-63
2023/11/17 07:02:03;;;;;;;4.85;4.30;;;;;;;5.93;100.00;96400.59;5084457;28;20020;-63
2023/11/17 07:04:30;;;;;;;12.07;6.63;;;;;;;5.96;100.00;96408.25;5077225;28;20027;-62
2023/11/17 07:06:55;;;;;;;9.60;6.97;;;;;;;5.98;100.00;96419.44;5075947;28;20024;-62
2023/11/17 07:09:23;;;;;;;8.98;5.85;;;;;;;5.96;100.00;96405.63;5076295;28;20431;-62
2023/11/17 07:11:51;;;;;;;4.85;4.45;;;;;;;6.01;100.00;96403.59;5079985;28;20707;-62
2023/11/17 07:14:19;;;;;;;7.68;6.97;;;;;;;5.98;100.00;96413.38;5086634;28;20051;-63
2023/11/17 07:16:45;;;;;;;6.88;4.80;;;;;;;5.97;100.00;96417.75;5074167;28;20027;-62
2023/11/17 07:19:11;;;;;;;2.80;2.60;;;;;;;6.00;100.00;96424.59;5074819;28;20537;-62
2023/11/17 07:21:37;;;;;;;7.53;2.90;;;;;;;6.02;100.00;96427.97;5090631;28;20013;-62
2023/11/17 07:24:07;;;;;;;5.00;2.80;;;;;;;6.06;100.00;96432.06;5069046;28;20020;-62
2023/11/17 07:26:38;;;;;;;8.50;7.80;;;;;;;6.13;100.00;96428.13;5075015;28;20013;-62
2023/11/17 07:29:04;;;;;;;15.80;14.30;;;;;;;6.06;100.00;96442.53;5079202;28;20103;-62
2023/11/17 07:31:37;;;;;;;11.57;10.57;;;;;;;6.06;100.00;96441.66;5082809;28;20104;-62
2023/11/17 07:34:07;;;;;;;13.40;12.27;;;;;;;6.06;100.00;96437.28;5093163;28;20021;-62
2023/11/17 07:36:37;;;;;;;12.32;10.50;;;;;;;6.08;100.00;96440.66;5091619;28;20055;-62
2023/11/17 07:39:06;;;;;;;10.75;9.13;;;;;;;6.10;100.00;96440.56;5085110;28;20033;-62
2023/11/17 07:41:33;;;;;;;13.23;11.82;;;;;;;6.17;100.00;96444.47;5083250;28;20016;-62
2023/11/17 07:44:01;;;;;;;11.52;10.43;;;;;;;6.24;100.00;96450.97;5080410;28;20030;-62
2023/11/17 07:46:27;;;;;;;8.75;6.40;;;;;;;6.34;100.00;96471.34;5089242;28;20055;-62
2023/11/17 07:48:53;;;;;;;8.65;5.95;;;;;;;6.34;100.00;96476.56;5080397;28;20020;-62
2023/11/17 07:51:19;;;;;;;5.85;4.75;;;;;;;6.39;100.00;96466.66;5081615;28;20036;-62
2023/11/17 07:53:45;;;;;;;5.32;4.43;;;;;;;6.35;100.00;96475.63;5082350;28;20020;-62
2023/11/17 07:56:11;;;;;;;4.60;4.13;;;;;;;6.35;100.00;96480.88;5080791;28;20602;-62
2023/11/17 07:58:37;;;;;;;4.30;3.90;;;;;;;6.31;100.00;96480.22;5078870;28;20480;-62
2023/11/17 08:01:03;;;;;;;4.38;3.78;;;;;;;6.33;100.00;96485.34;5082194;28;20565;-62
2023/11/17 08:03:29;;;;;;;13.75;12.38;;;;;;;6.38;100.00;96480.66;5080890;28;20460;-62
2023/11/17 08:05:56;;;;;;;11.32;10.23;;;;;;;6.47;100.00;96472.22;5079751;28;20021;-63
2023/11/17 08:08:21;;;;;;;24.60;22.15;;;;;;;6.56;100.00;96471.66;5088694;28;20046;-63
2023/11/17 08:10:48;;;;;;;16.05;14.55;;;;;;;6.59;100.00;96476.69;5079607;28;20489;-63
2023/11/17 08:13:15;;;;;;;8.20;7.50;;;;;;;6.62;100.00;96472.19;5086723;28;20031;-62
2023/11/17 08:15:44;;;;;;;6.28;5.72;;;;;;;6.63;100.00;96476.50;5080432;28;20056;-62
2023/11/17 08:18:10;;;;;;;7.53;6.93;;;;;;;6.67;100.00;96486.69;5078699;28;20024;-62
2023/11/17 08:20:40;;;;;;;10.07;9.07;;;;;;;6.80;100.00;96480.63;5086486;28;20174;-62
2023/11/17 08:23:06;;;;;;;9.30;8.43;;;;;;;6.95;100.00;96481.41;5083456;28;20069;-63
2023/11/17 08:25:32;;;;;;;9.40;6.22;;;;;;;7.11;100.00;96487.34;5083693;28;20103;-63
2023/11/17 08:27:57;;;;;;;4.97;4.68;;;;;;;7.18;100.00;96498.25;5084429;28;20031;-63
2023/11/17 08:30:23;;;;;;;12.05;10.77;;;;;;;7.21;100.00;96505.91;5082719;28;20035;-62
2023/11/17 08:32:48;;;;;;;10.43;9.38;;;;;;;7.17;100.00;96520.97;5083684;28;20815;-63
2023/11/17 08:35:14;;;;;;;8.02;6.65;;;;;;;7.13;100.00;96532.59;5083874;28;20082;-63
2023/11/17 08:37:40;;;;;;;6.55;3.97;;;;;;;7.17;100.00;96528.00;5081467;28;20035;-63
2023/11/17 08:40:09;;;;;;;4.05;2.88;;;;;;;7.19;100.00;96536.59;5075112;28;20036;-63
2023/11/17 08:42:39;;;;;;;3.67;2.90;;;;;;;7.27;100.00;96536.09;5086034;28;20028;-63
2023/11/17 08:45:07;;;;;;;4.25;3.95;;;;;;;7.21;100.00;96534.72;5078084;28;20024;-63
2023/11/17 08:47:53;;;;;;;3.20;3.00;;;;;;;7.24;100.00;96539.75;5077419;28;20059;-62
2023/11/17 08:50:19;;;;;;;4.07;3.40;;;;;;;7.31;100.00;96540.19;5080770;28;20119;-63
2023/11/17 08:52:45;;;;;;;5.85;3.90;;;;;;;7.35;100.00;96540.84;5087541;28;20058;-63
2023/11/17 08:55:13;;;;;;;4.95;4.55;;;;;;;7.34;100.00;96544.41;5088721;28;20527;-63
2023/11/17 08:57:39;;;;;;;4.57;3.95;;;;;;;7.43;100.00;96559.50;5077445;28;20020;-63
2023/11/17 09:00:12;;;;;;;3.70;3.40;;;;;;;7.51;100.00;96565.06;5076212;28;20024;-63
2023/11/17 09:02:40;;;;;;;4.15;3.85;;;;;;;7.54;100.00;96571.91;5081546;28;20051;-63
2023/11/17 09:05:05;;;;;;;4.88;3.92;;;;;;;7.60;100.00;96577.56;5074991;28;20441;-63
2023/11/17 09:07:31;;;;;;;4.00;3.38;;;;;;;7.60;100.00;96588.06;5078571;28;20130;-63
2023/11/17 09:09:56;;;;;;;4.00;3.60;;;;;;;7.60;100.00;96609.03;5083032;28;20050;-63
2023/11/17 09:12:21;;;;;;;4.97;4.68;;;;;;;7.65;100.00;96595.63;5076121;28;20036;-63
2023/11/17 09:14:47;;;;;;;3.88;3.50;;;;;;;7.69;100.00;96617.22;5079870;28;20529;-62
2023/11/17 09:17:12;;;;;;;3.80;3.50;;;;;;;7.74;100.00;96620.38;5083282;28;20036;-63
2023/11/17 09:19:40;;;;;;;3.70;3.42;;;;;;;7.75;100.00;96627.31;5076177;28;20084;-63
2023/11/17 09:22:06;;;;;;;4.88;4.53;;;;;;;7.97;100.00;96625.88;5084600;28;20043;-63
2023/11/17 09:24:31;;;;;;;4.22;3.72;;;;;;;7.88;100.00;96635.19;5075683;28;20548;-62
2023/11/17 09:26:57;;;;;;;4.00;3.70;;;;;;;7.96;100.00;96639.94;5077351;28;20085;-61
2023/11/17 09:29:23;;;;;;;4.05;3.75;;;;;;;8.08;100.00;96651.38;5081851;28;20080;-62
2023/11/17 09:31:49;;;;;;;3.78;3.35;;;;;;;8.02;100.00;96666.56;5075757;28;20024;-61
2023/11/17 09:34:16;;;;;;;3.42;3.13;;;;;;;7.99;100.00;96684.31;5079099;28;20791;-62
2023/11/17 09:36:41;;;;;;;4.13;3.83;;;;;;;7.89;100.00;96686.69;5075992;28;20024;-62
2023/11/17 09:39:10;;;;;;;4.05;3.75;;;;;;;7.85;100.00;96700.97;5084071;28;20065;-62
2023/11/17 09:41:38;;;;;;;4.18;3.88;;;;;;;7.91;100.00;96710.19;5080649;28;20040;-62
2023/11/17 09:44:05;;;;;;;4.78;4.38;;;;;;;7.97;100.00;96709.78;5079105;28;20617;-62
2023/11/17 09:46:37;;;;;;;4.35;4.05;;;;;;;8.02;100.00;96713.78;5083633;28;20024;-62
2023/11/17 09:49:05;;;;;;;3.25;3.05;;;;;;;8.08;100.00;96715.16;5077045;28;20035;-62
2023/11/17 09:51:34;;;;;;;2.78;2.55;;;;;;;8.19;100.00;96716.25;5076046;28;20089;-62
2023/11/17 09:54:02;;;;;;;6.28;5.38;;;;;;;8.22;100.00;96724.72;5074999;28;20067;-62
2023/11/17 09:56:29;;;;;;;10.07;9.02;;;;;;;8.22;100.00;96727.34;5083420;28;20089;-62
2023/11/17 10:19:00;;;;;;;2.90;2.70;;;;;;;9.28;100.00;96665.91;5106672;27;20391;-63
2023/11/17 10:21:26;;;;;;;3.30;1.42;;;;;;;9.27;100.00;96658.13;5087663;28;20439;-63
2023/11/17 10:23:53;;;;;;;3.08;2.00;;;;;;;9.17;100.00;96648.28;5108494;28;20070;-63
2023/11/17 10:26:20;;;;;;;1.55;1.55;;;;;;;9.26;100.00;96662.53;5110179;28;20061;-63
2023/11/17 10:28:45;;;;;;;1.42;1.33;;;;;;;9.35;100.00;96652.34;5102988;28;20051;-63
2023/11/17 10:31:11;;;;;;;1.60;1.50;;;;;;;9.41;100.00;96646.63;5104990;28;20059;-63
2023/11/17 10:33:40;;;;;;;3.90;3.65;;;;;;;9.30;100.00;96645.63;5106810;28;20615;-63
2023/11/17 10:36:10;;;;;;;2.65;2.45;;;;;;;9.12;100.00;96637.25;5113096;28;20032;-63
2023/11/17 10:38:38;;;;;;;2.58;2.47;;;;;;;8.99;100.00;96633.84;5098784;28;20055;-63
2023/11/17 10:41:32;;;;;;;1.75;1.65;;;;;;;9.12;100.00;96634.63;5108016;28;20489;-63
2023/11/17 10:43:59;;;;;;;1.90;1.75;;;;;;;9.29;100.00;96617.66;5107828;28;20074;-63
2023/11/17 10:46:40;;;;;;;1.20;1.10;;;;;;;9.69;100.00;96610.41;5105389;28;20020;-63
2023/11/17 10:49:06;;;;;;;2.20;2.10;;;;;;;9.68;100.00;96600.84;5103585;28;20036;-63
2023/11/17 10:51:33;;;;;;;1.30;1.30;;;;;;;9.70;100.00;96597.16;5104477;28;20767;-64
2023/11/17 10:54:09;;;;;;;1.00;1.00;;;;;;;9.47;100.00;96588.34;5105186;28;20020;-63
2023/11/17 10:56:36;;;;;;;1.17;1.08;;;;;;;9.45;100.00;96590.25;5096976;28;20028;-63
2023/11/17 10:59:03;;;;;;;1.65;1.00;;;;;;;9.30;100.00;96587.81;5103449;28;20036;-64
2023/11/17 11:01:35;;;;;;;1.80;1.70;;;;;;;9.22;100.00;96589.31;5087044;28;20032;-64
2023/11/17 11:06:46;;;;;;;1.95;1.85;;;;;;;9.11;100.00;96611.94;5102211;28;20086;-63
2023/11/17 11:09:19;;;;;;;0.88;0.88;;;;;;;9.16;100.00;96611.59;5105906;28;20043;-64
2023/11/17 11:11:51;;;;;;;3.25;3.05;;;;;;;9.10;100.00;96618.13;5108495;28;20043;-63
2023/11/17 11:14:17;;;;;;;2.35;1.70;;;;;;;9.26;100.00;96617.03;5106992;28;20027;-63
2023/11/17 11:16:46;;;;;;;1.58;1.48;;;;;;;9.32;100.00;96635.84;5105563;28;20024;-63
2023/11/17 11:19:14;;;;;;;1.40;1.40;;;;;;;9.52;100.00;96632.69;5102137;28;20110;-64
2023/11/17 11:21:40;;;;;;;2.25;2.15;;;;;;;9.58;100.00;96632.25;5105486;28;20043;-64
2023/11/17 11:24:08;;;;;;;1.80;1.70;;;;;;;9.70;100.00;96620.84;5105528;28;20059;-63
2023/11/17 11:26:36;;;;;;;1.35;1.30;;;;;;;9.88;100.00;96605.47;5104971;28;20028;-64
2023/11/17 11:29:04;;;;;;;1.40;1.40;;;;;;;10.12;100.00;96596.66;5105592;28;20038;-64
2023/11/17 11:31:31;;;;;;;105.30;67.25;;;;;;;10.20;100.00;96587.38;5085603;28;20535;-64
2023/11/17 11:33:57;;;;;;;18.38;11.00;;;;;;;10.31;100.00;96577.69;5093689;28;20032;-64
2023/11/17 11:36:23;;;;;;;16.10;10.27;;;;;;;10.36;100.00;96579.13;5089592;28;20036;-64
2023/11/17 11:38:49;;;;;;;6.90;6.40;;;;;;;10.21;100.00;96576.72;5090456;28;20142;-64
2023/11/17 11:41:16;;;;;;;6.45;5.93;;;;;;;10.17;100.00;96578.75;5093746;28;20495;-63
2023/11/17 11:43:45;;;;;;;1.15;1.15;;;;;;;10.25;100.00;96567.63;5093394;28;20028;-64
2023/11/17 11:46:16;;;;;;;1.50;1.50;;;;;;;10.29;100.00;96568.22;5090262;28;20636;-64
2023/11/17 11:48:43;;;;;;;1.85;1.85;;;;;;;10.28;100.00;96563.91;5088877;28;20027;-63
2023/11/17 11:51:11;;;;;;;1.23;1.23;;;;;;;10.30;100.00;96569.91;5097157;28;20030;-64
2023/11/17 11:53:49;;;;;;;3.92;1.00;;;;;;;10.47;100.00;96563.34;5091797;28;20171;-64